createdAt,value
2019-02-15T00:00:06.093Z,6.60
2019-02-15T00:00:58.628Z,6.50
2019-02-15T00:01:45.618Z,6.50
2019-02-15T00:02:31.715Z,6.50
2019-02-15T00:03:17.957Z,6.50
2019-02-15T00:04:04.153Z,6.50
2019-02-15T00:04:50.335Z,6.50
2019-02-15T00:05:36.534Z,6.50
2019-02-15T00:06:22.221Z,6.50
2019-02-15T00:07:08.400Z,6.50
2019-02-15T00:07:54.127Z,6.50
2019-02-15T00:08:39.871Z,6.50
2019-02-15T00:09:25.745Z,6.40
2019-02-15T00:10:12.022Z,6.50
2019-02-15T00:10:58.378Z,6.40
2019-02-15T00:11:44.245Z,6.40
2019-02-15T00:12:30.015Z,6.40
2019-02-15T00:13:15.689Z,6.40
2019-02-15T00:14:01.858Z,6.40
2019-02-15T00:14:48.242Z,6.40
2019-02-15T00:15:34.164Z,6.40
2019-02-15T00:16:20.501Z,6.40
2019-02-15T00:17:06.481Z,6.40
2019-02-15T00:18:12.065Z,6.50
2019-02-15T00:19:15.003Z,6.50
2019-02-15T00:20:01.659Z,6.50
2019-02-15T00:20:54.557Z,6.40
2019-02-15T00:21:51.735Z,6.40
2019-02-15T00:22:37.894Z,6.40
2019-02-15T00:23:23.518Z,6.40
2019-02-15T00:24:09.217Z,6.40
2019-02-15T00:24:54.841Z,6.40
2019-02-15T00:25:40.626Z,6.30
2019-02-15T00:26:26.767Z,6.30
2019-02-15T00:27:12.866Z,6.40
2019-02-15T00:27:59.144Z,6.40
2019-02-15T00:28:45.187Z,6.30
2019-02-15T00:29:30.903Z,6.40
2019-02-15T00:30:16.544Z,6.30
2019-02-15T00:31:02.919Z,6.40
2019-02-15T00:31:49.115Z,6.40
2019-02-15T00:32:35.258Z,6.40
2019-02-15T00:33:21.708Z,6.30
2019-02-15T00:34:07.999Z,6.30
2019-02-15T00:34:54.317Z,6.40
2019-02-15T00:35:40.095Z,6.40
2019-02-15T00:36:25.795Z,6.40
2019-02-15T00:37:11.917Z,6.40
2019-02-15T00:37:57.570Z,6.30
2019-02-15T00:38:43.255Z,6.40
2019-02-15T00:39:28.993Z,6.40
2019-02-15T00:40:14.622Z,6.30
2019-02-15T00:41:00.279Z,6.30
2019-02-15T00:41:46.033Z,6.40
2019-02-15T00:42:31.798Z,6.40
2019-02-15T00:43:22.368Z,6.40
2019-02-15T00:44:17.207Z,6.40
2019-02-15T00:46:28.475Z,6.30
2019-02-15T00:47:32.639Z,6.40
2019-02-15T00:48:20.063Z,6.30
2019-02-15T00:49:07.072Z,6.40
2019-02-15T00:50:18.377Z,6.30
2019-02-15T00:51:11.978Z,6.30
2019-02-15T00:52:17.398Z,6.30
2019-02-15T00:53:15.927Z,6.30
2019-02-15T00:54:07.792Z,6.30
2019-02-15T00:55:07.833Z,6.30
2019-02-15T00:56:13.469Z,6.30
2019-02-15T00:57:24.731Z,6.30
2019-02-15T00:58:18.951Z,6.30
2019-02-15T00:59:19.943Z,6.30
2019-02-15T01:00:28.070Z,6.30
2019-02-15T01:01:33.403Z,6.30
2019-02-15T01:02:29.007Z,6.20
2019-02-15T01:03:37.612Z,6.20
2019-02-15T01:04:36.766Z,6.20
2019-02-15T01:05:34.215Z,6.20
2019-02-15T01:06:55.012Z,6.20
2019-02-15T01:08:03.345Z,6.20
2019-02-15T01:08:58.036Z,6.20
2019-02-15T01:09:52.292Z,6.20
2019-02-15T01:10:46.306Z,6.20
2019-02-15T01:11:41.348Z,6.20
2019-02-15T01:12:32.873Z,6.20
2019-02-15T01:13:21.283Z,6.10
2019-02-15T01:14:06.931Z,6.10
2019-02-15T01:14:53.074Z,6.20
2019-02-15T01:15:39.404Z,6.20
2019-02-15T01:16:25.091Z,6.10
2019-02-15T01:17:10.911Z,6.10
2019-02-15T01:17:56.897Z,6.10
2019-02-15T01:18:42.615Z,6.20
2019-02-15T01:19:28.417Z,6.20
2019-02-15T01:20:14.252Z,6.20
2019-02-15T01:21:00.476Z,6.20
2019-02-15T01:21:46.286Z,6.10
2019-02-15T01:22:32.399Z,6.20
2019-02-15T01:23:18.611Z,6.10
2019-02-15T01:24:04.719Z,6.10
2019-02-15T01:24:50.381Z,6.10
2019-02-15T01:25:41.927Z,6.10
2019-02-15T01:26:45.008Z,6.20
2019-02-15T01:27:40.542Z,6.20
2019-02-15T01:28:34.401Z,6.20
2019-02-15T01:29:38.581Z,6.10
2019-02-15T01:30:42.595Z,6.20
2019-02-15T01:31:46.993Z,6.10
2019-02-15T01:32:58.296Z,6.20
2019-02-15T01:34:10.381Z,6.10
2019-02-15T01:35:04.010Z,6.10
2019-02-15T01:36:07.644Z,6.10
2019-02-15T01:37:10.819Z,6.10
2019-02-15T01:38:16.235Z,6.10
2019-02-15T01:39:20.704Z,6.00
2019-02-15T01:40:25.282Z,6.00
2019-02-15T01:42:34.668Z,6.00
2019-02-15T01:43:44.627Z,6.00
2019-02-15T01:44:48.617Z,6.10
2019-02-15T01:45:54.509Z,6.10
2019-02-15T01:47:55.842Z,6.10
2019-02-15T01:48:56.352Z,6.00
2019-02-15T01:49:56.869Z,6.00
2019-02-15T01:50:56.480Z,6.00
2019-02-15T01:52:58.017Z,6.00
2019-02-15T01:54:05.022Z,6.00
2019-02-15T01:55:04.690Z,6.10
2019-02-15T01:56:05.148Z,6.00
2019-02-15T01:57:03.383Z,6.10
2019-02-15T01:58:10.353Z,6.20
2019-02-15T01:59:09.927Z,6.20
2019-02-15T02:00:11.933Z,6.20
2019-02-15T02:01:13.666Z,6.20
2019-02-15T02:02:13.346Z,6.10
2019-02-15T02:03:13.867Z,6.10
2019-02-15T02:04:13.407Z,6.10
2019-02-15T02:05:13.217Z,6.10
2019-02-15T02:06:13.517Z,6.00
2019-02-15T02:07:13.993Z,6.00
2019-02-15T02:08:18.535Z,6.00
2019-02-15T02:09:19.470Z,6.10
2019-02-15T02:10:22.928Z,6.10
2019-02-15T02:11:22.670Z,6.10
2019-02-15T02:12:22.314Z,6.10
2019-02-15T02:13:22.805Z,6.10
2019-02-15T02:14:23.346Z,6.10
2019-02-15T02:15:22.876Z,6.10
2019-02-15T02:16:23.509Z,6.10
2019-02-15T02:17:23.261Z,6.10
2019-02-15T02:18:23.938Z,6.10
2019-02-15T02:19:24.382Z,6.00
2019-02-15T02:20:25.105Z,6.00
2019-02-15T02:21:25.569Z,6.10
2019-02-15T02:22:26.073Z,6.10
2019-02-15T02:23:25.660Z,6.00
2019-02-15T02:24:25.246Z,6.00
2019-02-15T02:25:25.691Z,5.90
2019-02-15T02:26:25.365Z,5.90
2019-02-15T02:27:25.827Z,5.80
2019-02-15T02:28:25.396Z,5.90
2019-02-15T02:29:25.304Z,5.80
2019-02-15T02:30:25.772Z,5.90
2019-02-15T02:31:25.381Z,5.80
2019-02-15T02:32:25.022Z,5.90
2019-02-15T02:33:24.668Z,5.90
2019-02-15T02:34:24.362Z,5.80
2019-02-15T02:35:23.988Z,5.90
2019-02-15T02:36:24.524Z,5.90
2019-02-15T02:37:12.060Z,5.80
2019-02-15T02:38:19.144Z,5.80
2019-02-15T02:39:26.567Z,5.80
2019-02-15T02:40:26.506Z,5.90
2019-02-15T02:41:27.093Z,5.90
2019-02-15T02:42:27.656Z,5.90
2019-02-15T02:43:28.148Z,5.90
2019-02-15T02:44:28.704Z,5.90
2019-02-15T02:45:29.242Z,6.00
2019-02-15T02:46:19.739Z,6.00
2019-02-15T02:47:26.696Z,6.00
2019-02-15T02:48:26.887Z,6.00
2019-02-15T02:49:26.570Z,5.90
2019-02-15T02:50:26.251Z,6.00
2019-02-15T02:51:26.703Z,6.00
2019-02-15T02:52:27.232Z,6.00
2019-02-15T02:53:27.713Z,6.00
2019-02-15T02:54:28.115Z,6.00
2019-02-15T02:55:27.733Z,6.00
2019-02-15T02:56:28.056Z,6.00
2019-02-15T02:57:27.758Z,6.00
2019-02-15T02:58:31.250Z,6.10
2019-02-15T02:59:31.633Z,6.10
2019-02-15T03:00:33.536Z,6.10
2019-02-15T03:01:32.858Z,6.10
2019-02-15T03:02:33.397Z,6.10
2019-02-15T03:03:33.838Z,6.10
2019-02-15T03:04:37.214Z,6.10
2019-02-15T03:05:36.824Z,6.10
2019-02-15T03:06:36.477Z,6.10
2019-02-15T03:07:36.912Z,6.00
2019-02-15T03:08:37.273Z,6.00
2019-02-15T03:09:35.420Z,6.00
2019-02-15T03:10:35.237Z,6.10
2019-02-15T03:11:35.752Z,6.20
2019-02-15T03:12:36.344Z,6.10
2019-02-15T03:13:36.921Z,6.10
2019-02-15T03:14:37.409Z,6.10
2019-02-15T03:15:37.117Z,6.10
2019-02-15T03:16:36.723Z,6.00
2019-02-15T03:17:37.377Z,6.00
2019-02-15T03:18:37.935Z,6.10
2019-02-15T03:19:38.423Z,6.10
2019-02-15T03:20:37.968Z,6.20
2019-02-15T03:21:37.530Z,6.20
2019-02-15T03:22:37.212Z,6.20
2019-02-15T03:23:37.748Z,6.20
2019-02-15T03:24:41.246Z,6.20
2019-02-15T03:25:41.776Z,6.20
2019-02-15T03:26:41.330Z,6.10
2019-02-15T03:27:41.828Z,6.20
2019-02-15T03:28:41.488Z,6.20
2019-02-15T03:29:41.996Z,6.20
2019-02-15T03:30:42.530Z,6.20
2019-02-15T03:31:42.295Z,6.10
2019-02-15T03:32:42.741Z,6.10
2019-02-15T03:33:43.357Z,6.10
2019-02-15T03:34:42.980Z,6.10
2019-02-15T03:35:54.696Z,6.10
2019-02-15T03:37:17.184Z,6.10
2019-02-15T03:39:59.475Z,6.00
2019-02-15T03:41:02.125Z,6.00
2019-02-15T03:42:02.529Z,6.00
2019-02-15T03:43:03.126Z,6.00
2019-02-15T03:44:02.806Z,6.10
2019-02-15T03:45:03.326Z,6.20
2019-02-15T03:46:02.947Z,6.20
2019-02-15T03:47:03.557Z,6.10
2019-02-15T03:48:07.038Z,6.10
2019-02-15T03:49:06.936Z,6.10
2019-02-15T03:50:08.341Z,6.10
2019-02-15T03:51:08.885Z,6.10
2019-02-15T03:52:09.403Z,6.10
2019-02-15T03:53:09.925Z,6.10
2019-02-15T03:54:10.537Z,6.10
2019-02-15T03:55:10.993Z,6.20
2019-02-15T03:56:11.557Z,6.10
2019-02-15T03:57:11.950Z,6.10
2019-02-15T03:58:11.601Z,6.10
2019-02-15T03:59:15.031Z,6.10
2019-02-15T04:00:14.705Z,6.00
2019-02-15T04:01:02.309Z,6.10
2019-02-15T04:02:09.441Z,6.00
2019-02-15T04:03:09.544Z,6.00
2019-02-15T04:04:13.043Z,6.00
2019-02-15T04:05:12.724Z,6.00
2019-02-15T04:06:12.328Z,6.10
2019-02-15T04:07:12.896Z,6.00
2019-02-15T04:08:16.373Z,6.00
2019-02-15T04:09:20.058Z,6.00
2019-02-15T04:10:19.614Z,6.10
2019-02-15T04:11:19.308Z,6.10
2019-02-15T04:12:19.797Z,6.00
2019-02-15T04:13:19.408Z,6.00
2019-02-15T04:14:32.286Z,6.00
2019-02-15T04:15:24.328Z,6.00
2019-02-15T04:16:14.855Z,6.00
2019-02-15T04:17:14.517Z,6.00
2019-02-15T04:18:15.082Z,5.90
2019-02-15T04:19:14.730Z,5.90
2019-02-15T04:20:07.042Z,5.90
2019-02-15T04:21:14.121Z,6.00
2019-02-15T04:22:14.445Z,5.90
2019-02-15T04:23:17.152Z,6.00
2019-02-15T04:24:17.595Z,6.00
2019-02-15T04:25:30.924Z,6.00
2019-02-15T04:26:37.949Z,5.90
2019-02-15T04:27:37.651Z,6.00
2019-02-15T04:28:38.114Z,6.00
2019-02-15T04:29:38.178Z,5.90
2019-02-15T04:30:41.228Z,6.00
2019-02-15T04:31:44.741Z,6.00
2019-02-15T04:32:48.277Z,5.90
2019-02-15T04:33:49.247Z,6.00
2019-02-15T04:34:49.311Z,6.00
2019-02-15T04:35:50.742Z,6.00
2019-02-15T04:36:51.297Z,6.00
2019-02-15T04:37:38.792Z,6.00
2019-02-15T04:38:45.734Z,6.00
2019-02-15T04:39:45.466Z,6.00
2019-02-15T04:40:45.358Z,6.00
2019-02-15T04:41:48.957Z,6.00
2019-02-15T04:42:47.077Z,6.00
2019-02-15T04:43:57.244Z,6.00
2019-02-15T04:44:57.982Z,6.00
2019-02-15T04:45:46.653Z,6.00
2019-02-15T04:46:53.828Z,6.00
2019-02-15T04:47:54.278Z,6.00
2019-02-15T04:48:54.734Z,6.10
2019-02-15T04:49:55.256Z,6.00
2019-02-15T04:50:55.815Z,6.00
2019-02-15T04:51:59.364Z,5.90
2019-02-15T04:53:02.813Z,5.90
2019-02-15T04:54:01.637Z,5.90
2019-02-15T04:55:02.041Z,5.90
2019-02-15T04:56:05.235Z,5.90
2019-02-15T04:58:08.532Z,5.90
2019-02-15T04:59:08.968Z,5.90
2019-02-15T05:00:09.457Z,5.90
2019-02-15T05:01:09.058Z,5.80
2019-02-15T05:02:09.533Z,5.80
2019-02-15T05:02:57.165Z,5.80
2019-02-15T05:04:04.229Z,5.90
2019-02-15T05:05:04.814Z,5.80
2019-02-15T05:06:05.293Z,5.80
2019-02-15T05:07:05.691Z,5.80
2019-02-15T05:08:05.307Z,5.80
2019-02-15T05:09:05.910Z,5.80
2019-02-15T05:10:05.752Z,5.70
2019-02-15T05:11:06.285Z,5.70
2019-02-15T05:12:05.871Z,5.80
2019-02-15T05:13:06.286Z,5.80
2019-02-15T05:14:06.745Z,5.80
2019-02-15T05:15:06.242Z,5.90
2019-02-15T05:16:07.290Z,5.90
2019-02-15T05:17:07.339Z,5.90
2019-02-15T05:18:06.977Z,5.80
2019-02-15T05:19:07.552Z,5.90
2019-02-15T05:20:08.033Z,5.80
2019-02-15T05:21:12.874Z,5.80
2019-02-15T05:22:13.244Z,5.80
2019-02-15T05:23:13.678Z,5.80
2019-02-15T05:24:14.284Z,5.80
2019-02-15T05:25:13.944Z,5.80
2019-02-15T05:26:14.431Z,5.70
2019-02-15T05:27:14.028Z,5.70
2019-02-15T05:28:14.473Z,5.80
2019-02-15T05:29:13.969Z,5.80
2019-02-15T05:30:13.608Z,5.80
2019-02-15T05:32:19.645Z,5.80
2019-02-15T05:33:21.252Z,5.80
2019-02-15T05:34:21.695Z,5.80
2019-02-15T05:35:22.246Z,5.70
2019-02-15T05:36:21.926Z,5.70
2019-02-15T05:37:21.488Z,5.70
2019-02-15T05:38:21.691Z,5.80
2019-02-15T05:40:28.361Z,5.80
2019-02-15T05:41:31.413Z,5.70
2019-02-15T05:42:31.514Z,5.70
2019-02-15T05:43:32.026Z,5.60
2019-02-15T05:44:35.723Z,5.60
2019-02-15T05:45:36.226Z,5.70
2019-02-15T05:46:39.817Z,5.80
2019-02-15T05:50:06.050Z,5.90
2019-02-15T05:51:09.278Z,5.90
2019-02-15T05:52:09.705Z,5.80
2019-02-15T05:53:13.183Z,5.80
2019-02-15T05:54:15.916Z,5.80
2019-02-15T05:55:03.558Z,5.80
2019-02-15T05:56:10.580Z,5.80
2019-02-15T05:57:10.928Z,5.80
2019-02-15T05:59:39.776Z,5.80
2019-02-15T06:00:42.513Z,5.80
2019-02-15T06:01:42.902Z,5.70
2019-02-15T06:02:30.570Z,5.80
2019-02-15T06:03:37.536Z,5.80
2019-02-15T06:04:38.041Z,5.80
2019-02-15T06:05:41.091Z,5.80
2019-02-15T06:06:44.585Z,5.80
2019-02-15T06:07:48.300Z,5.80
2019-02-15T06:08:52.205Z,5.80
2019-02-15T06:09:43.289Z,5.80
2019-02-15T06:10:50.288Z,5.90
2019-02-15T06:11:50.062Z,5.80
2019-02-15T06:12:52.563Z,5.80
2019-02-15T06:14:59.096Z,5.90
2019-02-15T06:16:03.334Z,5.80
2019-02-15T06:18:07.233Z,5.80
2019-02-15T06:19:07.807Z,5.80
2019-02-15T06:19:58.439Z,5.80
2019-02-15T06:21:05.664Z,5.80
2019-02-15T06:23:08.879Z,5.80
2019-02-15T06:24:08.482Z,5.90
2019-02-15T06:25:08.916Z,5.80
2019-02-15T06:26:13.373Z,5.80
2019-02-15T06:27:13.908Z,5.80
2019-02-15T06:28:14.432Z,5.80
2019-02-15T06:29:14.152Z,5.80
2019-02-15T06:31:17.803Z,5.80
2019-02-15T06:32:22.079Z,5.80
2019-02-15T06:33:12.642Z,5.80
2019-02-15T06:34:12.229Z,5.80
2019-02-15T06:35:17.501Z,5.80
2019-02-15T06:36:20.493Z,5.90
2019-02-15T06:38:34.297Z,5.90
2019-02-15T06:39:18.354Z,5.90
2019-02-15T06:40:25.374Z,5.80
2019-02-15T06:41:12.992Z,5.80
2019-02-15T06:42:00.635Z,5.70
2019-02-15T06:42:48.275Z,5.70
2019-02-15T06:43:35.844Z,5.70
2019-02-15T06:44:42.783Z,5.70
2019-02-15T06:45:30.459Z,5.80
2019-02-15T06:46:18.050Z,5.80
2019-02-15T06:47:05.657Z,5.90
2019-02-15T06:48:12.588Z,5.90
2019-02-15T06:49:00.219Z,5.80
2019-02-15T06:50:07.230Z,5.80
2019-02-15T06:51:06.793Z,5.80
2019-02-15T06:51:55.522Z,5.80
2019-02-15T06:53:02.492Z,5.80
2019-02-15T06:54:02.424Z,5.80
2019-02-15T06:55:03.009Z,5.80
2019-02-15T06:55:54.062Z,5.90
2019-02-15T06:57:01.117Z,5.80
2019-02-15T06:58:01.744Z,5.90
2019-02-15T07:00:24.519Z,5.80
2019-02-15T07:01:33.016Z,5.80
2019-02-15T07:03:56.412Z,5.80
2019-02-15T07:05:16.122Z,5.80
2019-02-15T07:06:16.309Z,5.90
2019-02-15T07:07:19.751Z,5.90
2019-02-15T07:08:07.402Z,5.90
2019-02-15T07:09:15.263Z,5.90
2019-02-15T07:10:15.583Z,5.90
2019-02-15T07:11:16.139Z,6.00
2019-02-15T07:12:15.789Z,6.00
2019-02-15T07:13:15.362Z,5.90
2019-02-15T07:14:15.055Z,5.90
2019-02-15T07:15:05.797Z,5.90
2019-02-15T07:16:06.237Z,5.90
2019-02-15T07:17:09.756Z,6.00
2019-02-15T07:18:10.275Z,6.00
2019-02-15T07:19:10.725Z,6.00
2019-02-15T07:19:58.264Z,6.00
2019-02-15T07:20:45.955Z,6.00
2019-02-15T07:21:46.239Z,6.00
2019-02-15T07:22:46.750Z,6.10
2019-02-15T07:23:49.452Z,6.00
2019-02-15T07:24:50.888Z,6.10
2019-02-15T07:25:51.843Z,6.10
2019-02-15T07:26:54.945Z,6.10
2019-02-15T07:27:55.517Z,6.10
2019-02-15T07:28:58.130Z,6.10
2019-02-15T07:29:57.752Z,6.10
2019-02-15T07:30:57.472Z,6.10
2019-02-15T07:31:58.049Z,6.20
2019-02-15T07:32:58.445Z,6.20
2019-02-15T07:34:01.847Z,6.10
2019-02-15T07:35:01.464Z,6.20
2019-02-15T07:36:01.974Z,6.20
2019-02-15T07:37:01.575Z,6.20
2019-02-15T07:38:01.192Z,6.20
2019-02-15T07:39:00.846Z,6.30
2019-02-15T07:40:01.327Z,6.40
2019-02-15T07:41:01.747Z,6.40
2019-02-15T07:42:02.341Z,6.40
2019-02-15T07:43:01.949Z,6.50
2019-02-15T07:44:01.555Z,6.60
2019-02-15T07:45:01.247Z,6.80
2019-02-15T07:46:00.872Z,7.20
2019-02-15T07:47:01.383Z,7.70
2019-02-15T07:48:01.792Z,8.30
2019-02-15T07:49:01.440Z,8.80
2019-02-15T07:50:01.917Z,9.10
2019-02-15T07:51:09.588Z,9.60
2019-02-15T07:52:06.356Z,10.10
2019-02-15T07:53:09.811Z,10.00
2019-02-15T07:54:12.512Z,9.40
2019-02-15T07:55:13.132Z,8.80
2019-02-15T07:56:13.741Z,8.40
2019-02-15T07:57:14.273Z,8.10
2019-02-15T07:58:17.799Z,7.90
2019-02-15T07:59:21.521Z,7.70
2019-02-15T08:00:21.320Z,7.60
2019-02-15T08:01:24.563Z,7.50
2019-02-15T08:02:24.298Z,7.40
2019-02-15T08:03:24.006Z,7.40
2019-02-15T08:04:27.497Z,7.40
2019-02-15T08:05:30.153Z,7.40
2019-02-15T08:06:30.755Z,7.40
2019-02-15T08:07:34.231Z,7.40
2019-02-15T08:08:34.693Z,7.40
2019-02-15T08:09:34.261Z,7.30
2019-02-15T08:10:33.850Z,7.40
2019-02-15T08:11:36.439Z,7.30
2019-02-15T08:12:36.830Z,7.40
2019-02-15T08:13:37.298Z,7.40
2019-02-15T08:14:37.763Z,7.40
2019-02-15T08:15:37.391Z,7.40
2019-02-15T08:16:38.770Z,7.40
2019-02-15T08:17:38.543Z,7.40
2019-02-15T08:18:39.054Z,7.40
2019-02-15T08:19:38.712Z,7.40
2019-02-15T08:20:39.255Z,7.40
2019-02-15T08:21:39.685Z,7.50
2019-02-15T08:22:39.416Z,7.50
2019-02-15T08:23:39.957Z,7.50
2019-02-15T08:24:39.534Z,7.50
2019-02-15T08:25:39.221Z,7.60
2019-02-15T08:26:39.622Z,7.60
2019-02-15T08:27:40.136Z,7.70
2019-02-15T08:28:40.625Z,7.70
2019-02-15T08:29:43.758Z,7.70
2019-02-15T08:30:43.653Z,7.70
2019-02-15T08:31:44.090Z,7.80
2019-02-15T08:32:44.530Z,7.80
2019-02-15T08:33:48.167Z,7.80
2019-02-15T08:34:47.807Z,7.80
2019-02-15T08:35:48.502Z,7.80
2019-02-15T08:36:46.750Z,7.80
2019-02-15T08:37:53.711Z,7.80
2019-02-15T08:39:56.822Z,7.80
2019-02-15T08:41:00.296Z,7.90
2019-02-15T08:42:03.882Z,7.90
2019-02-15T08:43:02.367Z,7.90
2019-02-15T08:44:02.134Z,8.00
2019-02-15T08:45:02.668Z,8.00
2019-02-15T08:46:05.364Z,8.00
2019-02-15T08:47:05.761Z,8.10
2019-02-15T08:48:06.339Z,8.10
2019-02-15T08:49:09.461Z,8.10
2019-02-15T08:49:59.997Z,8.10
2019-02-15T08:51:06.976Z,8.20
2019-02-15T08:52:07.384Z,8.30
2019-02-15T08:53:07.934Z,8.30
2019-02-15T08:54:08.471Z,8.30
2019-02-15T08:55:12.152Z,8.40
2019-02-15T08:56:12.658Z,8.40
2019-02-15T08:57:12.236Z,8.40
2019-02-15T08:58:12.679Z,8.50
2019-02-15T08:59:12.297Z,8.50
2019-02-15T09:00:12.036Z,8.50
2019-02-15T09:01:12.586Z,8.60
2019-02-15T09:02:21.244Z,8.80
2019-02-15T09:03:22.127Z,10.00
2019-02-15T09:04:22.388Z,12.30
2019-02-15T09:05:22.123Z,13.80
2019-02-15T09:06:22.658Z,14.30
2019-02-15T09:07:23.114Z,14.60
2019-02-15T09:08:22.783Z,14.10
2019-02-15T09:09:22.497Z,13.30
2019-02-15T09:10:22.999Z,12.50
2019-02-15T09:11:23.816Z,12.30
2019-02-15T09:12:24.013Z,12.50
2019-02-15T09:13:24.515Z,13.10
2019-02-15T09:14:24.959Z,13.90
2019-02-15T09:15:24.639Z,14.30
2019-02-15T09:16:25.191Z,14.70
2019-02-15T09:17:27.289Z,14.90
2019-02-15T09:18:27.271Z,15.10
2019-02-15T09:19:26.868Z,15.30
2019-02-15T09:20:27.428Z,15.30
2019-02-15T09:21:27.070Z,15.40
2019-02-15T09:22:27.568Z,15.40
2019-02-15T09:23:28.265Z,15.30
2019-02-15T09:24:28.862Z,15.30
2019-02-15T09:25:29.378Z,15.40
2019-02-15T09:26:28.950Z,15.40
2019-02-15T09:27:29.924Z,15.00
2019-02-15T09:30:20.897Z,15.10
2019-02-15T09:31:19.153Z,15.30
2019-02-15T09:32:26.090Z,15.40
2019-02-15T09:33:26.351Z,15.50
2019-02-15T09:34:24.406Z,15.70
2019-02-15T09:35:31.356Z,15.70
2019-02-15T09:37:34.464Z,15.90
2019-02-15T09:38:34.869Z,15.80
2019-02-15T09:39:34.395Z,15.80
2019-02-15T09:40:34.928Z,16.00
2019-02-15T09:41:34.489Z,16.10
2019-02-15T09:42:34.060Z,16.30
2019-02-15T09:43:33.674Z,16.40
2019-02-15T09:44:21.232Z,16.30
2019-02-15T09:45:10.257Z,16.50
2019-02-15T09:46:19.248Z,16.50
2019-02-15T09:47:11.356Z,16.60
2019-02-15T09:48:11.809Z,16.90
2019-02-15T09:49:11.965Z,17.00
2019-02-15T09:50:15.166Z,17.10
2019-02-15T09:51:15.710Z,17.20
2019-02-15T09:52:16.322Z,17.20
2019-02-15T09:53:20.054Z,17.40
2019-02-15T09:54:20.760Z,17.10
2019-02-15T09:55:24.085Z,17.10
2019-02-15T09:56:24.991Z,17.10
2019-02-15T09:57:28.127Z,17.30
2019-02-15T09:58:27.673Z,17.30
2019-02-15T09:59:27.228Z,17.40
2019-02-15T10:00:26.868Z,17.50
2019-02-15T10:01:26.353Z,17.70
2019-02-15T10:02:29.035Z,17.50
2019-02-15T10:03:30.062Z,17.60
2019-02-15T10:04:33.212Z,17.60
2019-02-15T10:05:33.661Z,17.70
2019-02-15T10:07:37.773Z,17.70
2019-02-15T10:08:25.402Z,17.70
2019-02-15T10:09:32.360Z,18.00
2019-02-15T10:10:33.579Z,18.20
2019-02-15T10:11:36.641Z,18.00
2019-02-15T10:12:39.173Z,18.30
2019-02-15T10:13:41.812Z,18.30
2019-02-15T10:14:42.399Z,18.40
2019-02-15T10:15:42.975Z,18.30
2019-02-15T10:17:02.945Z,18.50
2019-02-15T10:18:03.005Z,18.20
2019-02-15T10:18:50.518Z,18.20
2019-02-15T10:19:57.616Z,18.40
2019-02-15T10:20:58.280Z,18.50
2019-02-15T10:21:58.028Z,18.70
2019-02-15T10:22:58.628Z,18.80
2019-02-15T10:23:59.083Z,18.50
2019-02-15T10:24:59.419Z,18.70
2019-02-15T10:25:59.944Z,18.70
2019-02-15T10:27:00.298Z,18.90
2019-02-15T10:28:00.829Z,18.80
2019-02-15T10:29:01.334Z,18.90
2019-02-15T10:30:02.587Z,18.80
2019-02-15T10:31:02.339Z,18.90
2019-02-15T10:32:02.008Z,18.90
2019-02-15T10:33:04.749Z,18.80
2019-02-15T10:34:07.500Z,18.70
2019-02-15T10:35:08.017Z,18.50
2019-02-15T10:36:08.446Z,18.70
2019-02-15T10:37:08.255Z,18.30
2019-02-15T10:38:11.754Z,18.70
2019-02-15T10:39:11.272Z,18.60
2019-02-15T10:40:10.833Z,18.70
2019-02-15T10:41:11.389Z,18.80
2019-02-15T10:42:14.109Z,18.60
2019-02-15T10:43:14.656Z,18.50
2019-02-15T10:44:17.186Z,18.40
2019-02-15T10:45:17.285Z,18.60
2019-02-15T10:46:20.430Z,18.50
2019-02-15T10:47:25.074Z,18.30
2019-02-15T10:48:21.595Z,18.10
2019-02-15T10:49:21.155Z,18.10
2019-02-15T10:50:23.963Z,18.20
2019-02-15T10:51:27.409Z,18.20
2019-02-15T10:52:30.950Z,18.10
2019-02-15T10:53:29.040Z,18.20
2019-02-15T10:54:36.187Z,18.20
2019-02-15T10:55:38.092Z,18.30
2019-02-15T10:56:38.217Z,18.20
2019-02-15T10:57:40.852Z,18.40
2019-02-15T10:58:40.570Z,18.70
2019-02-15T10:59:41.067Z,18.50
2019-02-15T11:00:41.579Z,18.40
2019-02-15T11:01:42.155Z,18.50
2019-02-15T11:02:42.592Z,18.50
2019-02-15T11:03:42.228Z,18.40
2019-02-15T11:04:42.732Z,18.30
2019-02-15T11:05:42.347Z,18.20
2019-02-15T11:06:42.774Z,18.10
2019-02-15T11:07:43.387Z,18.10
2019-02-15T11:08:42.991Z,18.10
2019-02-15T11:09:46.500Z,18.10
2019-02-15T11:10:46.155Z,18.10
2019-02-15T11:11:46.584Z,17.90
2019-02-15T11:12:46.273Z,18.00
2019-02-15T11:13:45.747Z,18.00
2019-02-15T11:14:46.267Z,18.10
2019-02-15T11:15:49.837Z,18.00
2019-02-15T11:16:49.456Z,18.10
2019-02-15T11:17:49.959Z,18.10
2019-02-15T11:18:49.537Z,18.00
2019-02-15T11:19:50.004Z,18.10
2019-02-15T11:20:49.652Z,17.90
2019-02-15T11:21:49.409Z,18.00
2019-02-15T11:22:49.985Z,18.20
2019-02-15T11:23:49.796Z,18.10
2019-02-15T11:24:49.634Z,18.10
2019-02-15T11:25:49.166Z,18.10
2019-02-15T11:26:48.687Z,18.10
2019-02-15T11:27:49.242Z,18.10
2019-02-15T11:28:49.645Z,18.30
2019-02-15T11:29:50.129Z,18.30
2019-02-15T11:30:52.705Z,18.40
2019-02-15T11:31:53.227Z,18.30
2019-02-15T11:32:53.774Z,18.20
2019-02-15T11:33:54.323Z,18.30
2019-02-15T11:34:53.917Z,18.10
2019-02-15T11:35:53.620Z,18.10
2019-02-15T11:36:54.066Z,17.90
2019-02-15T11:37:53.706Z,18.00
2019-02-15T11:38:53.301Z,18.20
2019-02-15T11:40:55.114Z,18.00
2019-02-15T11:41:55.013Z,18.20
2019-02-15T11:42:54.596Z,18.20
2019-02-15T11:43:54.160Z,18.20
2019-02-15T11:44:53.854Z,18.10
2019-02-15T11:45:53.388Z,18.10
2019-02-15T11:46:56.808Z,18.10
2019-02-15T11:47:55.486Z,18.20
2019-02-15T11:48:55.940Z,18.20
2019-02-15T11:49:56.500Z,18.20
2019-02-15T11:50:56.897Z,18.30
2019-02-15T11:52:37.023Z,18.30
2019-02-15T11:53:37.514Z,18.30
2019-02-15T11:54:37.151Z,18.40
2019-02-15T11:55:37.684Z,18.30
2019-02-15T11:56:37.185Z,18.20
2019-02-15T11:57:37.570Z,18.40
2019-02-15T11:58:40.052Z,18.50
2019-02-15T11:59:43.549Z,18.60
2019-02-15T12:00:44.124Z,18.60
2019-02-15T12:01:44.585Z,18.50
2019-02-15T12:02:44.995Z,18.60
2019-02-15T12:03:43.205Z,18.60
2019-02-15T12:04:50.174Z,18.60
2019-02-15T12:05:57.262Z,18.70
2019-02-15T12:06:57.211Z,18.60
2019-02-15T12:07:56.900Z,18.50
2019-02-15T12:08:57.404Z,18.60
2019-02-15T12:09:57.872Z,18.60
2019-02-15T12:10:58.377Z,18.40
2019-02-15T12:11:58.868Z,18.30
2019-02-15T12:12:58.393Z,18.30
2019-02-15T12:13:57.880Z,18.30
2019-02-15T12:14:57.464Z,18.40
2019-02-15T12:15:57.864Z,18.40
2019-02-15T12:17:05.533Z,18.40
2019-02-15T12:17:59.989Z,18.40
2019-02-15T12:18:59.586Z,18.40
2019-02-15T12:21:01.870Z,18.40
2019-02-15T12:22:01.348Z,18.40
2019-02-15T12:23:01.913Z,18.40
2019-02-15T12:24:01.594Z,18.40
2019-02-15T12:25:01.983Z,18.30
2019-02-15T12:26:05.820Z,18.40
2019-02-15T12:27:06.055Z,18.50
2019-02-15T12:28:05.799Z,18.60
2019-02-15T12:29:05.297Z,18.50
2019-02-15T12:30:05.021Z,18.40
2019-02-15T12:31:03.240Z,18.40
2019-02-15T12:32:10.272Z,18.30
2019-02-15T12:33:09.770Z,18.40
2019-02-15T12:34:09.452Z,18.30
2019-02-15T12:35:10.077Z,18.30
2019-02-15T12:36:09.753Z,18.30
2019-02-15T12:37:10.225Z,18.30
2019-02-15T12:38:09.811Z,18.30
2019-02-15T12:39:09.490Z,18.20
2019-02-15T12:40:09.121Z,18.20
2019-02-15T12:41:09.588Z,18.20
2019-02-15T12:42:12.389Z,18.20
2019-02-15T12:43:12.682Z,18.10
2019-02-15T12:44:12.235Z,18.10
2019-02-15T12:45:12.809Z,18.00
2019-02-15T12:46:12.490Z,18.00
2019-02-15T12:47:15.084Z,17.90
2019-02-15T12:48:12.417Z,18.00
2019-02-15T12:49:19.374Z,17.90
2019-02-15T12:50:18.895Z,18.00
2019-02-15T12:51:19.501Z,18.00
2019-02-15T12:52:20.040Z,18.00
2019-02-15T12:53:20.179Z,18.00
2019-02-15T12:54:23.215Z,17.90
2019-02-15T12:55:23.652Z,17.80
2019-02-15T12:56:24.199Z,17.80
2019-02-15T12:57:27.606Z,17.70
2019-02-15T12:58:30.140Z,17.80
2019-02-15T12:59:29.771Z,17.80
2019-02-15T13:00:27.955Z,17.90
2019-02-15T13:01:35.312Z,17.90
2019-02-15T13:02:42.334Z,17.80
2019-02-15T13:03:42.938Z,17.80
2019-02-15T13:04:43.349Z,17.80
2019-02-15T13:05:44.309Z,17.70
2019-02-15T13:06:47.440Z,17.70
2019-02-15T13:07:47.967Z,17.70
2019-02-15T13:08:48.524Z,17.70
2019-02-15T13:09:48.995Z,17.80
2019-02-15T13:10:49.441Z,17.70
2019-02-15T13:12:35.909Z,17.70
2019-02-15T13:13:36.101Z,17.60
2019-02-15T13:14:36.487Z,17.60
2019-02-15T13:15:37.025Z,17.50
2019-02-15T13:16:37.409Z,17.50
2019-02-15T13:17:37.904Z,17.50
2019-02-15T13:18:41.324Z,17.50
2019-02-15T13:19:41.651Z,17.40
2019-02-15T13:20:41.307Z,17.40
2019-02-15T13:21:41.634Z,17.30
2019-02-15T13:22:42.099Z,17.40
2019-02-15T13:23:41.865Z,17.30
2019-02-15T13:24:43.185Z,17.30
2019-02-15T13:25:44.013Z,17.30
2019-02-15T13:26:44.313Z,17.30
2019-02-15T13:27:48.142Z,17.30
2019-02-15T13:28:48.331Z,17.40
2019-02-15T13:29:48.763Z,17.40
2019-02-15T13:30:49.260Z,17.20